sensor_id;sensor_type;location;lat;lon;timestamp;P1;durP1;ratioP1;P2;durP2;ratioP2
42092;SDS011;28974;50.316;18.960;2024-02-04T00:04:59;20.95;;;11.00;;
42092;SDS011;28974;50.316;18.960;2024-02-04T00:17:25;31.23;;;13.13;;
42092;SDS011;28974;50.316;18.960;2024-02-04T00:29:31;24.17;;;11.40;;
42092;SDS011;28974;50.316;18.960;2024-02-04T00:41:31;24.30;;;12.45;;
42092;SDS011;28974;50.316;18.960;2024-02-04T00:53:32;23.98;;;10.65;;
42092;SDS011;28974;50.316;18.960;2024-02-04T01:05:38;25.90;;;13.00;;
42092;SDS011;28974;50.316;18.960;2024-02-04T01:17:41;27.95;;;12.82;;
42092;SDS011;28974;50.316;18.960;2024-02-04T01:29:43;27.70;;;15.55;;
42092;SDS011;28974;50.316;18.960;2024-02-04T01:41:44;29.35;;;13.95;;
42092;SDS011;28974;50.316;18.960;2024-02-04T01:53:46;20.52;;;10.93;;
42092;SDS011;28974;50.316;18.960;2024-02-04T02:05:46;22.33;;;12.90;;
42092;SDS011;28974;50.316;18.960;2024-02-04T02:17:50;7.82;;;4.30;;
42092;SDS011;28974;50.316;18.960;2024-02-04T02:29:56;13.75;;;5.47;;
42092;SDS011;28974;50.316;18.960;2024-02-04T02:41:57;14.18;;;5.70;;
42092;SDS011;28974;50.316;18.960;2024-02-04T02:53:59;12.52;;;5.25;;
42092;SDS011;28974;50.316;18.960;2024-02-04T03:05:59;8.73;;;3.05;;
42092;SDS011;28974;50.316;18.960;2024-02-04T03:18:00;16.08;;;5.72;;
42092;SDS011;28974;50.316;18.960;2024-02-04T03:30:00;18.20;;;6.97;;
42092;SDS011;28974;50.316;18.960;2024-02-04T03:42:03;21.38;;;7.22;;
42092;SDS011;28974;50.316;18.960;2024-02-04T03:54:04;5.25;;;3.10;;
42092;SDS011;28974;50.316;18.960;2024-02-04T04:06:04;30.15;;;7.68;;
42092;SDS011;28974;50.316;18.960;2024-02-04T04:18:05;20.38;;;7.85;;
42092;SDS011;28974;50.316;18.960;2024-02-04T04:30:06;11.65;;;4.80;;
42092;SDS011;28974;50.316;18.960;2024-02-04T04:42:06;17.43;;;5.07;;
42092;SDS011;28974;50.316;18.960;2024-02-04T04:54:07;12.77;;;6.63;;
42092;SDS011;28974;50.316;18.960;2024-02-04T05:06:07;7.45;;;4.22;;
42092;SDS011;28974;50.316;18.960;2024-02-04T05:18:07;16.85;;;4.47;;
42092;SDS011;28974;50.316;18.960;2024-02-04T05:30:08;9.05;;;5.18;;
42092;SDS011;28974;50.316;18.960;2024-02-04T05:42:08;6.47;;;3.95;;
42092;SDS011;28974;50.316;18.960;2024-02-04T05:54:12;9.25;;;3.22;;
42092;SDS011;28974;50.316;18.960;2024-02-04T06:06:16;14.98;;;4.53;;
42092;SDS011;28974;50.316;18.960;2024-02-04T06:18:16;22.05;;;5.50;;
42092;SDS011;28974;50.316;18.960;2024-02-04T06:30:19;11.85;;;3.35;;
42092;SDS011;28974;50.316;18.960;2024-02-04T06:54:45;18.05;;;3.97;;
42092;SDS011;28974;50.316;18.960;2024-02-04T07:06:45;14.13;;;5.88;;
42092;SDS011;28974;50.316;18.960;2024-02-04T07:18:45;12.52;;;5.60;;
42092;SDS011;28974;50.316;18.960;2024-02-04T07:30:46;21.20;;;6.32;;
42092;SDS011;28974;50.316;18.960;2024-02-04T07:42:51;15.02;;;6.72;;
42092;SDS011;28974;50.316;18.960;2024-02-04T07:54:52;14.70;;;4.15;;
42092;SDS011;28974;50.316;18.960;2024-02-04T08:06:52;13.52;;;4.57;;
42092;SDS011;28974;50.316;18.960;2024-02-04T08:18:58;13.85;;;3.80;;
42092;SDS011;28974;50.316;18.960;2024-02-04T08:31:00;13.00;;;3.97;;
42092;SDS011;28974;50.316;18.960;2024-02-04T08:43:01;17.60;;;5.65;;
42092;SDS011;28974;50.316;18.960;2024-02-04T08:55:01;19.27;;;5.88;;
42092;SDS011;28974;50.316;18.960;2024-02-04T09:07:06;19.83;;;5.43;;
42092;SDS011;28974;50.316;18.960;2024-02-04T09:19:07;29.73;;;7.10;;
42092;SDS011;28974;50.316;18.960;2024-02-04T09:31:18;18.45;;;7.10;;
42092;SDS011;28974;50.316;18.960;2024-02-04T09:43:29;21.05;;;6.38;;
42092;SDS011;28974;50.316;18.960;2024-02-04T09:55:30;23.77;;;7.22;;
42092;SDS011;28974;50.316;18.960;2024-02-04T10:07:31;12.70;;;5.13;;
42092;SDS011;28974;50.316;18.960;2024-02-04T10:19:31;13.13;;;4.53;;
42092;SDS011;28974;50.316;18.960;2024-02-04T10:31:35;16.85;;;4.65;;
42092;SDS011;28974;50.316;18.960;2024-02-04T10:44:02;16.05;;;5.80;;
42092;SDS011;28974;50.316;18.960;2024-02-04T10:56:03;24.92;;;7.03;;
42092;SDS011;28974;50.316;18.960;2024-02-04T11:08:03;28.02;;;5.05;;
42092;SDS011;28974;50.316;18.960;2024-02-04T11:20:17;20.33;;;4.95;;
42092;SDS011;28974;50.316;18.960;2024-02-04T11:32:21;18.13;;;7.67;;
42092;SDS011;28974;50.316;18.960;2024-02-04T11:44:24;26.10;;;10.43;;
42092;SDS011;28974;50.316;18.960;2024-02-04T11:56:28;27.98;;;13.55;;
42092;SDS011;28974;50.316;18.960;2024-02-04T12:08:32;32.75;;;15.20;;
42092;SDS011;28974;50.316;18.960;2024-02-04T12:20:33;33.83;;;14.38;;
42092;SDS011;28974;50.316;18.960;2024-02-04T12:32:33;44.47;;;22.73;;
42092;SDS011;28974;50.316;18.960;2024-02-04T12:44:34;36.40;;;16.85;;
42092;SDS011;28974;50.316;18.960;2024-02-04T12:56:41;34.95;;;16.67;;
42092;SDS011;28974;50.316;18.960;2024-02-04T13:08:41;43.38;;;18.17;;
42092;SDS011;28974;50.316;18.960;2024-02-04T13:20:43;47.33;;;23.98;;
42092;SDS011;28974;50.316;18.960;2024-02-04T13:32:45;51.50;;;26.38;;
42092;SDS011;28974;50.316;18.960;2024-02-04T13:44:46;67.07;;;30.42;;
42092;SDS011;28974;50.316;18.960;2024-02-04T13:56:46;36.40;;;17.10;;
42092;SDS011;28974;50.316;18.960;2024-02-04T14:08:46;33.97;;;17.90;;
42092;SDS011;28974;50.316;18.960;2024-02-04T14:20:47;33.95;;;16.30;;
42092;SDS011;28974;50.316;18.960;2024-02-04T14:32:47;29.88;;;13.68;;
42092;SDS011;28974;50.316;18.960;2024-02-04T14:44:47;38.20;;;16.63;;
42092;SDS011;28974;50.316;18.960;2024-02-04T14:56:48;29.20;;;12.15;;
42092;SDS011;28974;50.316;18.960;2024-02-04T15:08:50;42.78;;;15.95;;
42092;SDS011;28974;50.316;18.960;2024-02-04T15:20:50;24.02;;;11.93;;
42092;SDS011;28974;50.316;18.960;2024-02-04T15:32:51;22.83;;;10.25;;
42092;SDS011;28974;50.316;18.960;2024-02-04T15:44:52;17.50;;;9.57;;
42092;SDS011;28974;50.316;18.960;2024-02-04T15:56:58;19.45;;;10.23;;
42092;SDS011;28974;50.316;18.960;2024-02-04T16:09:03;27.30;;;11.13;;
42092;SDS011;28974;50.316;18.960;2024-02-04T16:21:16;24.85;;;12.18;;
42092;SDS011;28974;50.316;18.960;2024-02-04T16:33:19;30.55;;;10.50;;
42092;SDS011;28974;50.316;18.960;2024-02-04T16:45:21;16.10;;;8.10;;
42092;SDS011;28974;50.316;18.960;2024-02-04T16:57:21;18.00;;;7.50;;
42092;SDS011;28974;50.316;18.960;2024-02-04T17:09:21;13.52;;;7.32;;
42092;SDS011;28974;50.316;18.960;2024-02-04T17:21:25;18.05;;;9.15;;
42092;SDS011;28974;50.316;18.960;2024-02-04T17:33:27;32.35;;;14.50;;
42092;SDS011;28974;50.316;18.960;2024-02-04T17:45:28;25.90;;;9.80;;
42092;SDS011;28974;50.316;18.960;2024-02-04T17:57:28;24.17;;;8.65;;
42092;SDS011;28974;50.316;18.960;2024-02-04T18:09:29;15.52;;;7.15;;
42092;SDS011;28974;50.316;18.960;2024-02-04T18:21:30;11.63;;;5.65;;
42092;SDS011;28974;50.316;18.960;2024-02-04T18:33:30;13.23;;;5.88;;
42092;SDS011;28974;50.316;18.960;2024-02-04T18:45:30;31.80;;;10.90;;
42092;SDS011;28974;50.316;18.960;2024-02-04T18:57:31;16.25;;;7.22;;
42092;SDS011;28974;50.316;18.960;2024-02-04T19:09:33;16.00;;;5.18;;
42092;SDS011;28974;50.316;18.960;2024-02-04T19:21:34;14.20;;;5.20;;
42092;SDS011;28974;50.316;18.960;2024-02-04T19:33:43;9.25;;;4.45;;
42092;SDS011;28974;50.316;18.960;2024-02-04T19:45:44;22.48;;;7.82;;
42092;SDS011;28974;50.316;18.960;2024-02-04T19:57:44;16.70;;;6.45;;
42092;SDS011;28974;50.316;18.960;2024-02-04T20:09:45;15.20;;;4.97;;
42092;SDS011;28974;50.316;18.960;2024-02-04T20:21:48;12.70;;;4.38;;
42092;SDS011;28974;50.316;18.960;2024-02-04T20:33:49;11.35;;;4.57;;
42092;SDS011;28974;50.316;18.960;2024-02-04T20:45:50;9.25;;;2.88;;
42092;SDS011;28974;50.316;18.960;2024-02-04T20:57:50;12.38;;;3.65;;
42092;SDS011;28974;50.316;18.960;2024-02-04T21:09:51;10.40;;;3.72;;
42092;SDS011;28974;50.316;18.960;2024-02-04T21:21:51;10.63;;;4.43;;
42092;SDS011;28974;50.316;18.960;2024-02-04T21:33:52;14.48;;;6.68;;
42092;SDS011;28974;50.316;18.960;2024-02-04T21:45:52;11.57;;;2.63;;
42092;SDS011;28974;50.316;18.960;2024-02-04T21:57:53;6.65;;;2.45;;
42092;SDS011;28974;50.316;18.960;2024-02-04T22:09:53;7.05;;;2.78;;
42092;SDS011;28974;50.316;18.960;2024-02-04T22:21:56;5.90;;;1.98;;
42092;SDS011;28974;50.316;18.960;2024-02-04T22:33:59;4.90;;;1.95;;
42092;SDS011;28974;50.316;18.960;2024-02-04T22:45:59;7.13;;;2.60;;
42092;SDS011;28974;50.316;18.960;2024-02-04T22:57:59;10.35;;;2.92;;
42092;SDS011;28974;50.316;18.960;2024-02-04T23:10:00;9.23;;;2.90;;
42092;SDS011;28974;50.316;18.960;2024-02-04T23:22:01;8.15;;;2.58;;
42092;SDS011;28974;50.316;18.960;2024-02-04T23:34:01;6.80;;;2.03;;
42092;SDS011;28974;50.316;18.960;2024-02-04T23:46:01;3.83;;;1.75;;
42092;SDS011;28974;50.316;18.960;2024-02-04T23:58:02;5.00;;;1.65;;
